createdAt,value
2022-08-26T00:00:06.869Z,98245.02
2022-08-26T00:05:18.291Z,98239.88
2022-08-26T00:10:25.999Z,98238.86
2022-08-26T00:15:33.855Z,98234.80
2022-08-26T00:20:41.361Z,98234.33
2022-08-26T00:25:49.531Z,98233.99
2022-08-26T00:30:56.110Z,98230.23
2022-08-26T00:36:02.910Z,98235.00
2022-08-26T00:41:09.830Z,98236.21
2022-08-26T00:46:18.370Z,98232.10
2022-08-26T00:51:29.697Z,98231.29
2022-08-26T00:56:38.571Z,98231.50
2022-08-26T01:01:45.990Z,98234.91
2022-08-26T01:06:54.481Z,98233.21
2022-08-26T01:12:02.820Z,98227.12
2022-08-26T01:17:10.173Z,98231.42
2022-08-26T01:22:19.182Z,98236.20
2022-08-26T01:27:26.093Z,98233.83
2022-08-26T01:32:40.359Z,98237.94
2022-08-26T01:37:47.370Z,98236.04
2022-08-26T01:42:54.190Z,98234.98
2022-08-26T01:48:03.884Z,98230.48
2022-08-26T01:53:12.823Z,98228.43
2022-08-26T01:58:22.291Z,98230.03
2022-08-26T02:03:30.138Z,98223.59
2022-08-26T02:08:40.913Z,98220.09
2022-08-26T02:13:48.530Z,98224.92
2022-08-26T02:18:56.209Z,98218.70
2022-08-26T02:24:10.550Z,98217.46
2022-08-26T02:29:24.119Z,98211.89
2022-08-26T02:34:32.586Z,98208.49
2022-08-26T02:39:40.911Z,98208.04
2022-08-26T02:44:47.504Z,98210.54
2022-08-26T02:49:54.871Z,98209.63
2022-08-26T02:55:01.731Z,98211.77
2022-08-26T03:00:11.130Z,98209.47
2022-08-26T03:05:18.375Z,98204.84
2022-08-26T03:10:26.014Z,98202.72
2022-08-26T03:15:32.913Z,98201.27
2022-08-26T03:20:40.561Z,98198.59
2022-08-26T03:25:50.319Z,98199.21
2022-08-26T03:30:57.545Z,98199.65
2022-08-26T03:36:07.054Z,98196.77
2022-08-26T03:41:13.930Z,98196.30
2022-08-26T03:46:21.075Z,98193.02
2022-08-26T03:51:27.930Z,98189.70
2022-08-26T03:56:35.569Z,98187.67
2022-08-26T04:01:42.639Z,98182.13
2022-08-26T04:06:49.393Z,98185.16
2022-08-26T04:11:58.193Z,98183.95
2022-08-26T04:17:05.390Z,98179.33
2022-08-26T04:22:12.773Z,98182.85
2022-08-26T04:27:19.519Z,98184.45
2022-08-26T04:32:26.343Z,98183.83
2022-08-26T04:37:33.390Z,98186.70
2022-08-26T04:42:40.570Z,98184.23
2022-08-26T04:47:47.213Z,98180.54
2022-08-26T04:52:54.350Z,98180.41
2022-08-26T04:58:00.973Z,98181.18
2022-08-26T05:03:10.576Z,98177.79
2022-08-26T05:08:17.919Z,98181.27
2022-08-26T05:13:26.604Z,98178.08
2022-08-26T05:18:34.510Z,98180.75
2022-08-26T05:23:42.161Z,98179.73
2022-08-26T05:28:48.990Z,98188.02
2022-08-26T05:33:57.250Z,98190.10
2022-08-26T05:39:04.830Z,98187.48
2022-08-26T05:44:12.540Z,98183.72
2022-08-26T05:49:20.783Z,98177.79
2022-08-26T05:54:35.544Z,98177.41
2022-08-26T05:59:42.500Z,98176.06
2022-08-26T06:04:49.770Z,98173.32
2022-08-26T06:10:15.332Z,98169.90
2022-08-26T06:15:25.610Z,98170.40
2022-08-26T06:20:34.334Z,98169.88
2022-08-26T06:25:42.309Z,98175.40
2022-08-26T06:30:50.236Z,98175.91
2022-08-26T06:35:57.193Z,98182.25
2022-08-26T06:41:06.010Z,98180.27
2022-08-26T06:46:13.575Z,98178.46
2022-08-26T06:51:22.401Z,98179.45
2022-08-26T06:56:31.249Z,98174.20
2022-08-26T07:01:43.005Z,98178.12
2022-08-26T07:06:52.951Z,98180.17
2022-08-26T07:12:00.414Z,98183.88
2022-08-26T07:17:11.013Z,98185.23
2022-08-26T07:22:20.965Z,98186.59
2022-08-26T07:27:27.540Z,98184.79
2022-08-26T07:32:35.560Z,98190.11
2022-08-26T07:37:42.362Z,98185.40
2022-08-26T07:42:49.498Z,98184.82
2022-08-26T07:47:56.931Z,98186.23
2022-08-26T07:53:04.798Z,98185.13
2022-08-26T07:58:11.520Z,98184.20
2022-08-26T08:03:18.952Z,98186.16
2022-08-26T08:08:27.572Z,98186.20
2022-08-26T08:13:35.930Z,98188.67
2022-08-26T08:18:42.749Z,98187.50
2022-08-26T08:23:49.235Z,98183.40
2022-08-26T08:28:57.357Z,98179.45
2022-08-26T08:34:04.173Z,98175.52
2022-08-26T08:39:11.120Z,98174.57
2022-08-26T08:44:20.420Z,98168.77
2022-08-26T08:49:28.069Z,98167.42
2022-08-26T08:54:36.211Z,98163.88
2022-08-26T08:59:51.450Z,98157.56
2022-08-26T09:05:16.130Z,98154.36
2022-08-26T09:10:28.933Z,98150.78
2022-08-26T09:15:38.163Z,98147.20
2022-08-26T09:20:51.520Z,98146.60
2022-08-26T09:25:59.513Z,98141.75
2022-08-26T09:31:12.530Z,98136.64
2022-08-26T09:36:24.771Z,98130.76
2022-08-26T09:41:32.891Z,98124.89
2022-08-26T09:52:04.629Z,98123.08
2022-08-26T09:57:18.079Z,98127.63
2022-08-26T10:02:36.723Z,98124.20
2022-08-26T10:07:46.312Z,98124.73
2022-08-26T10:13:05.246Z,98123.56
2022-08-26T10:18:15.328Z,98127.42
2022-08-26T10:23:25.327Z,98117.96
2022-08-26T10:28:37.290Z,98113.14
2022-08-26T10:33:44.750Z,98112.98
2022-08-26T10:38:51.530Z,98112.16
2022-08-26T10:44:00.869Z,98108.86
2022-08-26T10:49:08.740Z,98109.30
2022-08-26T10:54:19.170Z,98099.91
2022-08-26T10:59:30.242Z,98095.48
2022-08-26T11:04:47.534Z,98093.20
2022-08-26T11:09:55.150Z,98086.48
2022-08-26T11:15:02.111Z,98093.04
2022-08-26T11:20:12.397Z,98089.83
2022-08-26T11:25:20.920Z,98081.73
2022-08-26T11:30:44.420Z,98078.51
2022-08-26T11:35:52.405Z,98068.11
2022-08-26T11:41:11.893Z,98068.95
2022-08-26T11:46:26.370Z,98058.02
2022-08-26T11:51:34.991Z,98061.65
2022-08-26T11:56:46.862Z,98056.23
2022-08-26T12:01:55.604Z,98052.80
2022-08-26T12:07:03.560Z,98040.13
2022-08-26T12:12:15.254Z,98042.95
2022-08-26T12:17:28.394Z,98039.19
2022-08-26T12:22:39.270Z,98033.73
2022-08-26T12:27:53.640Z,98027.96
2022-08-26T12:33:22.445Z,98019.67
2022-08-26T12:38:30.797Z,98023.23
2022-08-26T12:43:41.803Z,98023.87
2022-08-26T12:48:50.109Z,98023.61
2022-08-26T12:53:57.750Z,98023.42
2022-08-26T12:59:11.178Z,98019.36
2022-08-26T13:04:36.324Z,98013.09
2022-08-26T13:09:43.172Z,98009.55
2022-08-26T13:14:51.269Z,98006.30
2022-08-26T13:20:02.848Z,97996.42
2022-08-26T13:25:11.546Z,97991.51
2022-08-26T13:30:18.524Z,97985.60
2022-08-26T13:35:25.310Z,97991.66
2022-08-26T13:40:34.627Z,97989.52
2022-08-26T13:45:41.720Z,97986.42
2022-08-26T13:50:49.085Z,97987.14
2022-08-26T13:55:55.650Z,97984.81
2022-08-26T14:01:02.434Z,97980.15
2022-08-26T14:06:09.120Z,97977.91
2022-08-26T14:11:16.044Z,97973.83
2022-08-26T14:16:25.020Z,97972.41
2022-08-26T14:21:32.738Z,97969.55
2022-08-26T14:26:39.311Z,97964.98
2022-08-26T14:31:46.332Z,97967.48
2022-08-26T14:36:53.040Z,97964.27
2022-08-26T14:41:59.713Z,97964.13
2022-08-26T14:47:08.033Z,97959.29
2022-08-26T14:52:14.920Z,97960.32
2022-08-26T14:57:21.924Z,97960.11
2022-08-26T15:02:33.513Z,97955.92
2022-08-26T15:07:41.271Z,97955.88
2022-08-26T15:12:48.497Z,97955.86
2022-08-26T15:17:55.206Z,97957.45
2022-08-26T15:23:06.232Z,97958.04
2022-08-26T15:28:13.580Z,97962.55
2022-08-26T15:33:20.422Z,97962.48
2022-08-26T15:38:27.153Z,97961.20
2022-08-26T15:43:34.047Z,97964.51
2022-08-26T15:48:41.132Z,97958.91
2022-08-26T15:53:47.910Z,97957.69
2022-08-26T15:58:56.315Z,97955.86
2022-08-26T16:04:03.490Z,97961.35
2022-08-26T16:09:10.281Z,97959.40
2022-08-26T16:14:21.683Z,97955.27
2022-08-26T16:19:28.329Z,97946.57
2022-08-26T16:24:35.128Z,97940.33
2022-08-26T16:29:41.950Z,97933.30
2022-08-26T16:34:56.943Z,97928.11
2022-08-26T16:40:04.018Z,97929.48
2022-08-26T16:45:11.590Z,97923.13
2022-08-26T16:50:18.429Z,97917.77
2022-08-26T16:55:25.470Z,97916.02
2022-08-26T17:00:33.609Z,97905.09
2022-08-26T17:05:40.654Z,97902.23
2022-08-26T17:10:47.480Z,97899.08
2022-08-26T17:15:58.376Z,97895.36
2022-08-26T17:21:08.010Z,97892.14
2022-08-26T17:26:14.680Z,97890.56
2022-08-26T17:31:21.665Z,97884.13
2022-08-26T17:36:28.539Z,97886.52
2022-08-26T17:41:35.451Z,97893.30
2022-08-26T17:46:42.467Z,97895.30
2022-08-26T17:51:49.222Z,97894.75
2022-08-26T17:56:56.051Z,97896.66
2022-08-26T18:02:04.414Z,97898.45
2022-08-26T18:07:11.290Z,97895.41
2022-08-26T18:12:18.170Z,97893.02
2022-08-26T18:17:24.969Z,97896.17
2022-08-26T18:22:31.731Z,97903.30
2022-08-26T18:27:39.040Z,97910.77
2022-08-26T18:32:45.970Z,97912.64
2022-08-26T18:37:52.952Z,97914.50
2022-08-26T18:42:59.451Z,97912.06
2022-08-26T18:48:07.006Z,97917.72
2022-08-26T18:53:13.800Z,97918.23
2022-08-26T18:58:20.641Z,97917.05
2022-08-26T19:03:29.030Z,97911.24
2022-08-26T19:08:35.740Z,97904.52
2022-08-26T19:13:42.471Z,97907.34
2022-08-26T19:18:50.710Z,97909.57
2022-08-26T19:23:59.480Z,97915.90
2022-08-26T19:29:07.115Z,97914.37
2022-08-26T19:34:14.401Z,97918.98
2022-08-26T19:39:24.470Z,97922.45
2022-08-26T19:44:47.521Z,97928.95
2022-08-26T19:49:55.921Z,97936.95
2022-08-26T19:55:03.011Z,97938.39
2022-08-26T20:00:11.348Z,97944.20
2022-08-26T20:05:20.409Z,97951.34
2022-08-26T20:10:27.531Z,97954.05
2022-08-26T20:15:34.298Z,97952.33
2022-08-26T20:21:06.412Z,97952.42
2022-08-26T20:26:13.691Z,97951.83
2022-08-26T20:31:20.460Z,97956.14
2022-08-26T20:36:28.594Z,97960.77
2022-08-26T20:41:35.971Z,97965.46
2022-08-26T20:46:42.930Z,97957.16
2022-08-26T20:51:52.554Z,97961.51
2022-08-26T20:56:59.910Z,97968.98
2022-08-26T21:02:06.795Z,97965.14
2022-08-26T21:07:13.540Z,97965.55
2022-08-26T21:12:20.202Z,97962.16
2022-08-26T21:17:27.365Z,97960.93
2022-08-26T21:22:34.524Z,97952.47
2022-08-26T21:27:41.578Z,97948.44
2022-08-26T21:32:48.098Z,97945.55
2022-08-26T21:37:54.991Z,97943.80
2022-08-26T21:43:01.629Z,97947.70
2022-08-26T21:48:08.263Z,97947.27
2022-08-26T21:53:15.870Z,97947.78
2022-08-26T21:58:22.547Z,97947.52
2022-08-26T22:03:29.944Z,97946.77
2022-08-26T22:08:42.210Z,97943.14
2022-08-26T22:13:49.270Z,97948.15
2022-08-26T22:18:56.133Z,97945.79
2022-08-26T22:24:02.650Z,97944.09
2022-08-26T22:29:09.152Z,97941.60
2022-08-26T22:34:17.590Z,97932.80
2022-08-26T22:39:25.325Z,97926.02
2022-08-26T22:44:32.705Z,97919.80
2022-08-26T22:49:39.371Z,97912.46
2022-08-26T22:54:45.990Z,97902.84
2022-08-26T22:59:52.793Z,97904.77
2022-08-26T23:04:59.371Z,97901.84
2022-08-26T23:10:06.869Z,97898.67
2022-08-26T23:15:14.158Z,97888.14
2022-08-26T23:20:22.801Z,97887.33
2022-08-26T23:25:30.264Z,97891.66
2022-08-26T23:30:37.540Z,97892.22
2022-08-26T23:35:44.349Z,97892.73
2022-08-26T23:40:51.335Z,97890.08
2022-08-26T23:45:58.344Z,97896.80
2022-08-26T23:51:22.682Z,97889.20
2022-08-26T23:56:29.600Z,97882.63
